Terminal Aerodrome Forecast
Issued by NWS

Home | Current Version | Previous Version | Text Only | Print | Product List | Glossary On
Versions: 1 2 3 4 5 6 7 8 9 10 11 12 13
000
FTUS42 KMLB 221127
TAFISM
TAF
KISM 221127Z 2212/2312 08007KT P6SM FEW025 SCT040 BKN250
     FM221600 12008KT P6SM VCSH SCT025 BKN040 BKN250
      TEMPO 2216/2219 3SM TSRA BKN030CB
     FM222300 10006KT P6SM SCT025 SCT040 BKN250=

USA.gov is the U.S. government's official web portal to all federal, state and local government web resources and services.